sensor_id;sensor_type;location;lat;lon;timestamp;P1;durP1;ratioP1;P2;durP2;ratioP2
57299;SDS011;43148;50.966;18.198;2023-10-13T00:06:42;16.90;;;9.20;;
57299;SDS011;43148;50.966;18.198;2023-10-13T00:16:46;3.40;;;3.20;;
57299;SDS011;43148;50.966;18.198;2023-10-13T00:27:11;8.60;;;8.00;;
57299;SDS011;43148;50.966;18.198;2023-10-13T00:37:41;8.50;;;7.90;;
57299;SDS011;43148;50.966;18.198;2023-10-13T00:48:26;15.40;;;6.70;;
57299;SDS011;43148;50.966;18.198;2023-10-13T00:58:46;6.10;;;5.80;;
57299;SDS011;43148;50.966;18.198;2023-10-13T01:08:44;10.30;;;8.90;;
57299;SDS011;43148;50.966;18.198;2023-10-13T01:18:36;6.70;;;6.30;;
57299;SDS011;43148;50.966;18.198;2023-10-13T01:28:34;6.80;;;6.40;;
57299;SDS011;43148;50.966;18.198;2023-10-13T01:38:37;2.30;;;2.20;;
57299;SDS011;43148;50.966;18.198;2023-10-13T01:48:29;10.30;;;9.50;;
57299;SDS011;43148;50.966;18.198;2023-10-13T01:58:24;9.30;;;7.80;;
57299;SDS011;43148;50.966;18.198;2023-10-13T02:08:17;11.60;;;6.00;;
57299;SDS011;43148;50.966;18.198;2023-10-13T02:18:10;14.20;;;5.90;;
57299;SDS011;43148;50.966;18.198;2023-10-13T02:28:09;15.60;;;6.20;;
57299;SDS011;43148;50.966;18.198;2023-10-13T02:38:22;7.10;;;6.70;;
57299;SDS011;43148;50.966;18.198;2023-10-13T02:48:52;6.60;;;6.10;;
57299;SDS011;43148;50.966;18.198;2023-10-13T02:58:53;5.50;;;5.00;;
57299;SDS011;43148;50.966;18.198;2023-10-13T03:09:05;10.20;;;9.10;;
57299;SDS011;43148;50.966;18.198;2023-10-13T03:19:43;4.50;;;4.30;;
57299;SDS011;43148;50.966;18.198;2023-10-13T03:30:06;7.20;;;5.60;;
57299;SDS011;43148;50.966;18.198;2023-10-13T03:40:22;8.20;;;7.70;;
57299;SDS011;43148;50.966;18.198;2023-10-13T03:50:35;9.20;;;8.50;;
57299;SDS011;43148;50.966;18.198;2023-10-13T04:00:25;8.00;;;7.20;;
57299;SDS011;43148;50.966;18.198;2023-10-13T04:10:57;10.90;;;10.00;;
57299;SDS011;43148;50.966;18.198;2023-10-13T04:21:38;9.20;;;8.40;;
57299;SDS011;43148;50.966;18.198;2023-10-13T04:32:11;12.50;;;11.40;;
57299;SDS011;43148;50.966;18.198;2023-10-13T04:42:37;11.70;;;11.00;;
57299;SDS011;43148;50.966;18.198;2023-10-13T04:53:19;14.80;;;9.50;;
57299;SDS011;43148;50.966;18.198;2023-10-13T05:04:22;13.10;;;11.90;;
57299;SDS011;43148;50.966;18.198;2023-10-13T05:15:16;11.40;;;10.40;;
57299;SDS011;43148;50.966;18.198;2023-10-13T05:26:16;13.30;;;12.00;;
57299;SDS011;43148;50.966;18.198;2023-10-13T05:37:25;13.40;;;9.90;;
57299;SDS011;43148;50.966;18.198;2023-10-13T05:48:25;10.70;;;10.10;;
57299;SDS011;43148;50.966;18.198;2023-10-13T06:00:06;12.30;;;11.50;;
57299;SDS011;43148;50.966;18.198;2023-10-13T06:11:03;12.70;;;11.70;;
57299;SDS011;43148;50.966;18.198;2023-10-13T06:30:36;13.60;;;12.60;;
57299;SDS011;43148;50.966;18.198;2023-10-13T06:40:38;12.00;;;11.00;;
57299;SDS011;43148;50.966;18.198;2023-10-13T06:50:58;11.10;;;10.40;;
57299;SDS011;43148;50.966;18.198;2023-10-13T07:00:54;8.20;;;7.60;;
57299;SDS011;43148;50.966;18.198;2023-10-13T07:21:15;7.90;;;7.10;;
57299;SDS011;43148;50.966;18.198;2023-10-13T07:31:13;8.70;;;8.00;;
57299;SDS011;43148;50.966;18.198;2023-10-13T07:41:14;8.50;;;6.30;;
57299;SDS011;43148;50.966;18.198;2023-10-13T07:51:14;10.60;;;7.00;;
57299;SDS011;43148;50.966;18.198;2023-10-13T08:01:18;6.00;;;5.40;;
57299;SDS011;43148;50.966;18.198;2023-10-13T08:11:10;7.40;;;6.80;;
57299;SDS011;43148;50.966;18.198;2023-10-13T08:21:38;6.60;;;6.00;;
57299;SDS011;43148;50.966;18.198;2023-10-13T08:31:51;3.20;;;2.90;;
57299;SDS011;43148;50.966;18.198;2023-10-13T08:42:38;13.40;;;5.10;;
57299;SDS011;43148;50.966;18.198;2023-10-13T08:53:07;6.80;;;6.30;;
57299;SDS011;43148;50.966;18.198;2023-10-13T09:03:58;14.50;;;4.90;;
57299;SDS011;43148;50.966;18.198;2023-10-13T09:15:05;9.10;;;6.60;;
57299;SDS011;43148;50.966;18.198;2023-10-13T09:25:35;6.50;;;6.10;;
57299;SDS011;43148;50.966;18.198;2023-10-13T09:35:54;5.90;;;5.50;;
57299;SDS011;43148;50.966;18.198;2023-10-13T09:46:27;9.80;;;9.00;;
57299;SDS011;43148;50.966;18.198;2023-10-13T09:57:05;7.60;;;7.00;;
57299;SDS011;43148;50.966;18.198;2023-10-13T10:07:38;6.00;;;5.60;;
57299;SDS011;43148;50.966;18.198;2023-10-13T10:18:03;5.70;;;5.30;;
57299;SDS011;43148;50.966;18.198;2023-10-13T10:28:01;2.90;;;2.80;;
57299;SDS011;43148;50.966;18.198;2023-10-13T10:48:36;3.80;;;3.50;;
57299;SDS011;43148;50.966;18.198;2023-10-13T10:58:48;3.80;;;3.30;;
57299;SDS011;43148;50.966;18.198;2023-10-13T11:09:11;4.20;;;2.60;;
57299;SDS011;43148;50.966;18.198;2023-10-13T11:19:33;3.30;;;3.10;;
57299;SDS011;43148;50.966;18.198;2023-10-13T11:29:49;2.80;;;2.50;;
57299;SDS011;43148;50.966;18.198;2023-10-13T11:40:04;2.20;;;2.10;;
57299;SDS011;43148;50.966;18.198;2023-10-13T11:50:46;3.50;;;3.20;;
57299;SDS011;43148;50.966;18.198;2023-10-13T12:00:45;4.30;;;2.10;;
57299;SDS011;43148;50.966;18.198;2023-10-13T12:11:44;1.90;;;1.60;;
57299;SDS011;43148;50.966;18.198;2023-10-13T12:29:49;2.20;;;1.70;;
57299;SDS011;43148;50.966;18.198;2023-10-13T12:51:01;2.60;;;2.40;;
57299;SDS011;43148;50.966;18.198;2023-10-13T13:01:26;3.50;;;2.80;;
57299;SDS011;43148;50.966;18.198;2023-10-13T13:18:47;3.20;;;3.00;;
57299;SDS011;43148;50.966;18.198;2023-10-13T13:28:43;2.50;;;2.30;;
57299;SDS011;43148;50.966;18.198;2023-10-13T13:38:30;2.80;;;2.60;;
57299;SDS011;43148;50.966;18.198;2023-10-13T13:48:38;10.90;;;2.50;;
57299;SDS011;43148;50.966;18.198;2023-10-13T13:58:35;3.70;;;3.40;;
57299;SDS011;43148;50.966;18.198;2023-10-13T14:08:49;2.80;;;2.60;;
57299;SDS011;43148;50.966;18.198;2023-10-13T14:19:10;16.90;;;4.00;;
57299;SDS011;43148;50.966;18.198;2023-10-13T14:28:55;1.80;;;1.70;;
57299;SDS011;43148;50.966;18.198;2023-10-13T14:38:48;2.30;;;2.20;;
57299;SDS011;43148;50.966;18.198;2023-10-13T14:48:48;2.10;;;2.00;;
57299;SDS011;43148;50.966;18.198;2023-10-13T14:56:09;5.10;;;4.70;;
57299;SDS011;43148;50.966;18.198;2023-10-13T15:16:12;3.40;;;3.20;;
57299;SDS011;43148;50.966;18.198;2023-10-13T15:33:52;4.10;;;3.90;;
57299;SDS011;43148;50.966;18.198;2023-10-13T15:43:46;14.00;;;10.30;;
57299;SDS011;43148;50.966;18.198;2023-10-13T15:53:38;18.30;;;17.10;;
57299;SDS011;43148;50.966;18.198;2023-10-13T16:03:29;2.90;;;2.80;;
57299;SDS011;43148;50.966;18.198;2023-10-13T16:13:12;2.60;;;2.30;;
57299;SDS011;43148;50.966;18.198;2023-10-13T16:23:08;3.80;;;3.60;;
57299;SDS011;43148;50.966;18.198;2023-10-13T16:32:53;5.90;;;5.10;;
57299;SDS011;43148;50.966;18.198;2023-10-13T16:42:49;2.80;;;2.70;;
57299;SDS011;43148;50.966;18.198;2023-10-13T16:52:42;5.90;;;5.30;;
57299;SDS011;43148;50.966;18.198;2023-10-13T17:02:41;10.50;;;6.80;;
57299;SDS011;43148;50.966;18.198;2023-10-13T17:12:30;6.10;;;5.70;;
57299;SDS011;43148;50.966;18.198;2023-10-13T17:22:16;6.20;;;5.80;;
57299;SDS011;43148;50.966;18.198;2023-10-13T17:32:04;7.80;;;5.10;;
57299;SDS011;43148;50.966;18.198;2023-10-13T17:41:51;6.90;;;6.20;;
57299;SDS011;43148;50.966;18.198;2023-10-13T17:51:37;4.80;;;4.40;;
57299;SDS011;43148;50.966;18.198;2023-10-13T18:01:22;8.40;;;6.90;;
57299;SDS011;43148;50.966;18.198;2023-10-13T18:11:12;7.50;;;7.00;;
57299;SDS011;43148;50.966;18.198;2023-10-13T18:21:05;8.70;;;7.30;;
57299;SDS011;43148;50.966;18.198;2023-10-13T18:31:01;6.90;;;6.30;;
57299;SDS011;43148;50.966;18.198;2023-10-13T18:41:09;11.10;;;10.10;;
57299;SDS011;43148;50.966;18.198;2023-10-13T18:51:04;7.30;;;6.70;;
57299;SDS011;43148;50.966;18.198;2023-10-13T19:01:07;12.00;;;7.80;;
57299;SDS011;43148;50.966;18.198;2023-10-13T19:11:07;9.20;;;8.60;;
57299;SDS011;43148;50.966;18.198;2023-10-13T19:21:08;16.30;;;12.80;;
57299;SDS011;43148;50.966;18.198;2023-10-13T19:38:24;10.60;;;8.10;;
57299;SDS011;43148;50.966;18.198;2023-10-13T19:48:13;9.60;;;8.40;;
57299;SDS011;43148;50.966;18.198;2023-10-13T19:58:06;11.90;;;10.70;;
57299;SDS011;43148;50.966;18.198;2023-10-13T20:07:51;9.40;;;7.30;;
57299;SDS011;43148;50.966;18.198;2023-10-13T20:17:39;11.10;;;10.20;;
57299;SDS011;43148;50.966;18.198;2023-10-13T20:27:24;22.60;;;14.50;;
57299;SDS011;43148;50.966;18.198;2023-10-13T20:37:09;15.20;;;14.20;;
57299;SDS011;43148;50.966;18.198;2023-10-13T20:47:02;38.80;;;4.60;;
57299;SDS011;43148;50.966;18.198;2023-10-13T20:56:49;7.50;;;7.00;;
57299;SDS011;43148;50.966;18.198;2023-10-13T21:06:35;8.20;;;6.00;;
57299;SDS011;43148;50.966;18.198;2023-10-13T21:16:26;11.90;;;8.90;;
57299;SDS011;43148;50.966;18.198;2023-10-13T21:26:21;16.10;;;7.30;;
57299;SDS011;43148;50.966;18.198;2023-10-13T21:36:09;9.80;;;8.80;;
57299;SDS011;43148;50.966;18.198;2023-10-13T21:46:09;11.30;;;9.30;;
57299;SDS011;43148;50.966;18.198;2023-10-13T21:56:04;4.40;;;4.00;;
57299;SDS011;43148;50.966;18.198;2023-10-13T22:05:54;8.90;;;6.60;;
57299;SDS011;43148;50.966;18.198;2023-10-13T22:15:42;6.60;;;6.10;;
57299;SDS011;43148;50.966;18.198;2023-10-13T22:25:28;7.10;;;6.40;;
57299;SDS011;43148;50.966;18.198;2023-10-13T22:35:28;9.60;;;6.60;;
57299;SDS011;43148;50.966;18.198;2023-10-13T22:45:14;11.50;;;6.80;;
57299;SDS011;43148;50.966;18.198;2023-10-13T22:55:07;6.20;;;5.80;;
57299;SDS011;43148;50.966;18.198;2023-10-13T23:05:19;7.60;;;5.80;;
57299;SDS011;43148;50.966;18.198;2023-10-13T23:15:40;13.80;;;3.60;;
57299;SDS011;43148;50.966;18.198;2023-10-13T23:25:34;6.90;;;6.40;;
57299;SDS011;43148;50.966;18.198;2023-10-13T23:35:29;17.80;;;6.70;;
57299;SDS011;43148;50.966;18.198;2023-10-13T23:45:48;6.20;;;5.70;;
57299;SDS011;43148;50.966;18.198;2023-10-13T23:55:48;5.20;;;4.90;;
